Time;durP1;ratioP1;P1;durP2;ratioP2;P2;SDS_P1;SDS_P2;PMS_P1;PMS_P2;Temp;Humidity;BMP_temperature;BMP_pressure;BME280_temperature;BME280_humidity;BME280_pressure;Samples;Min_cycle;Max_cycle;Signal;HPM_P1;HPM_P2
2024/01/18 00:06:54;;;;;;;11.75;8.00;;;;;;;20.19;48.76;98341.53;41403892;28;20422;-69
2024/01/18 00:26:54;;;;;;;11.25;8.32;;;;;;;20.14;49.13;98334.97;41391379;28;20042;-69
2024/01/18 00:46:55;;;;;;;13.02;8.57;;;;;;;20.12;48.94;98313.28;41402477;28;20042;-70
2024/01/18 01:06:59;;;;;;;12.98;9.02;;;;;;;20.14;49.05;98289.47;41401693;28;20065;-70
2024/01/18 01:26:59;;;;;;;12.85;8.65;;;;;;;20.15;48.62;98268.31;41408273;28;20050;-70
2024/01/18 01:47:00;;;;;;;12.80;8.93;;;;;;;20.18;48.64;98226.91;41397494;28;20152;-70
2024/01/18 02:07:01;;;;;;;12.93;8.93;;;;;;;20.21;47.99;98184.53;41398278;28;20073;-71
2024/01/18 02:27:02;;;;;;;12.68;8.77;;;;;;;20.15;48.63;98155.31;41391310;28;20501;-70
2024/01/18 02:47:02;;;;;;;11.93;8.57;;;;;;;20.17;48.46;98152.53;41388380;28;20045;-70
2024/01/18 03:07:03;;;;;;;11.57;8.73;;;;;;;20.18;48.20;98127.06;41386469;28;20141;-70
2024/01/18 03:27:04;;;;;;;12.25;8.65;;;;;;;20.15;48.34;98122.94;41383069;28;20046;-70
2024/01/18 03:47:04;;;;;;;11.82;8.32;;;;;;;20.21;48.22;98110.97;41218048;28;20058;-70
2024/01/18 04:07:05;;;;;;;11.65;8.25;;;;;;;20.18;48.51;98116.53;41210984;28;20055;-71
2024/01/18 04:27:06;;;;;;;11.40;8.48;;;;;;;20.21;48.49;98082.06;41214603;28;20034;-70
2024/01/18 04:47:10;;;;;;;11.07;8.00;;;;;;;20.15;48.46;98047.59;41237684;28;20557;-70
2024/01/18 05:07:10;;;;;;;10.50;7.78;;;;;;;20.22;48.09;98058.22;41295062;28;20049;-70
2024/01/18 05:27:13;;;;;;;9.75;7.38;;;;;;;20.77;47.27;98047.84;41379807;28;20042;-71
2024/01/18 05:47:13;;;;;;;12.73;7.53;;;;;;;21.08;48.69;98052.25;41367212;28;20042;-68
2024/01/18 06:07:13;;;;;;;28.55;9.80;;;;;;;20.85;48.25;98055.69;41366674;28;20042;-71
2024/01/18 06:27:14;;;;;;;26.08;7.78;;;;;;;21.03;46.06;98055.44;41374462;28;20072;-72
2024/01/18 06:47:14;;;;;;;17.73;7.35;;;;;;;21.30;45.71;98071.69;41402916;28;20053;-70
2024/01/18 07:07:15;;;;;;;12.60;7.15;;;;;;;21.55;45.27;98079.38;41404813;28;20052;-71
2024/01/18 07:27:15;;;;;;;12.75;7.88;;;;;;;21.55;45.68;98061.75;41425715;28;20540;-71
2024/01/18 07:47:18;;;;;;;14.18;7.50;;;;;;;21.57;46.03;98075.59;41392815;28;20057;-73
2024/01/18 08:07:18;;;;;;;12.52;8.07;;;;;;;21.64;45.99;98088.91;41383548;28;20062;-71
2024/01/18 08:27:18;;;;;;;12.77;8.13;;;;;;;21.63;45.63;98094.31;41411048;28;20124;-70
2024/01/18 08:47:19;;;;;;;12.88;8.70;;;;;;;21.64;45.68;98101.22;41437355;28;20054;-74
2024/01/18 09:07:19;;;;;;;14.10;9.07;;;;;;;21.63;45.88;98125.94;41408373;28;20046;-75
2024/01/18 09:27:22;;;;;;;13.93;9.27;;;;;;;21.63;45.59;98121.50;41405919;28;20038;-71
2024/01/18 09:47:22;;;;;;;13.68;9.50;;;;;;;21.61;45.37;98109.50;41375240;28;20042;-70
2024/01/18 10:07:24;;;;;;;12.25;9.20;;;;;;;21.71;45.31;98089.81;41416436;28;20054;-72
2024/01/18 10:27:25;;;;;;;12.32;9.38;;;;;;;21.67;45.55;98077.19;41421709;28;20050;-70
2024/01/18 10:47:26;;;;;;;13.10;9.18;;;;;;;21.69;45.13;98070.75;41405358;28;20038;-70
2024/01/18 11:07:29;;;;;;;10.75;8.77;;;;;;;21.63;45.32;98073.25;41419676;28;20074;-70
2024/01/18 11:27:36;;;;;;;10.88;8.23;;;;;;;21.65;44.73;98071.28;41467328;28;20046;-71
2024/01/18 11:47:37;;;;;;;10.55;7.88;;;;;;;21.60;45.05;98045.47;41438057;28;20137;-70
2024/01/18 12:07:38;;;;;;;10.48;8.27;;;;;;;21.69;44.84;98046.19;41424276;28;20057;-71
2024/01/18 12:27:40;;;;;;;9.93;8.02;;;;;;;21.64;44.60;98024.84;41399358;28;20113;-69
2024/01/18 12:47:41;;;;;;;8.57;7.65;;;;;;;21.63;44.54;98029.31;41410244;28;20067;-71
2024/01/18 13:07:41;;;;;;;9.40;7.30;;;;;;;21.64;44.17;98038.03;41426814;28;20034;-69
2024/01/18 13:27:42;;;;;;;9.50;7.28;;;;;;;21.67;44.09;98049.03;41449602;28;20429;-70
2024/01/18 13:47:43;;;;;;;9.10;7.25;;;;;;;21.64;44.36;98064.38;41438324;28;20073;-69
2024/01/18 14:07:45;;;;;;;9.80;7.30;;;;;;;21.66;44.45;98065.00;41440430;28;20532;-69
2024/01/18 14:27:45;;;;;;;8.07;7.07;;;;;;;21.48;44.49;98099.53;41446370;28;20056;-70
2024/01/18 14:47:47;;;;;;;9.95;6.78;;;;;;;21.52;44.67;98091.09;41406926;28;20057;-68
2024/01/18 15:07:47;;;;;;;8.65;6.57;;;;;;;21.43;44.96;98114.03;41373653;28;20046;-69
2024/01/18 15:27:48;;;;;;;8.50;6.07;;;;;;;21.36;44.92;98141.22;41360662;28;20069;-68
2024/01/18 15:47:51;;;;;;;8.02;5.70;;;;;;;21.30;45.49;98140.13;41362009;28;20048;-70
2024/01/18 16:07:51;;;;;;;7.40;5.78;;;;;;;21.19;45.63;98158.94;41280948;28;20209;-68
2024/01/18 16:27:52;;;;;;;7.95;5.40;;;;;;;21.14;45.87;98182.31;41381978;28;20588;-68
2024/01/18 16:47:53;;;;;;;8.82;5.60;;;;;;;21.05;46.16;98197.34;41414313;28;20429;-69
2024/01/18 17:07:54;;;;;;;8.10;5.28;;;;;;;20.92;45.91;98198.69;41421430;28;20159;-70
2024/01/18 17:27:55;;;;;;;8.85;6.03;;;;;;;21.09;46.47;98211.78;41418363;28;20147;-68
2024/01/18 17:47:55;;;;;;;7.72;5.63;;;;;;;21.00;47.20;98241.75;41368133;28;20056;-69
2024/01/18 18:07:56;;;;;;;141.32;90.07;;;;;;;21.18;47.48;98307.28;41407170;28;20066;-72
2024/01/18 18:27:56;;;;;;;155.00;99.57;;;;;;;21.20;47.46;98298.25;41403801;28;20378;-71
2024/01/18 18:47:58;;;;;;;154.55;97.25;;;;;;;21.32;47.85;98303.16;41415262;28;20121;-72
2024/01/18 19:07:59;;;;;;;135.98;87.78;;;;;;;21.36;47.59;98320.25;41408323;28;20053;-70
2024/01/18 19:27:59;;;;;;;134.90;81.18;;;;;;;21.38;48.46;98339.31;41368058;28;20410;-68
2024/01/18 19:47:59;;;;;;;117.13;71.95;;;;;;;21.36;48.05;98344.78;41365291;28;20050;-70
2024/01/18 20:08:01;;;;;;;101.05;63.42;;;;;;;21.32;48.28;98401.38;41361417;28;20108;-68
2024/01/18 20:28:01;;;;;;;88.15;56.67;;;;;;;21.31;49.45;98425.22;41399913;28;20479;-70
2024/01/18 20:48:03;;;;;;;72.35;44.25;;;;;;;20.61;48.54;98443.94;41385132;28;20088;-75
2024/01/18 21:08:04;;;;;;;61.38;36.38;;;;;;;20.95;49.39;98471.97;41439111;28;20110;-73
2024/01/18 21:28:05;;;;;;;56.30;34.90;;;;;;;21.03;49.58;98499.25;41453086;28;20042;-71
2024/01/18 21:48:06;;;;;;;44.47;30.75;;;;;;;20.93;50.90;98502.91;41458166;28;20069;-71
2024/01/18 22:08:06;;;;;;;46.05;29.88;;;;;;;20.84;51.01;98559.09;41485492;28;20054;-72
2024/01/18 22:28:07;;;;;;;39.00;27.60;;;;;;;20.67;50.97;98555.56;41472801;28;20044;-72
2024/01/18 22:48:08;;;;;;;36.20;25.77;;;;;;;20.64;50.91;98575.13;41502623;28;20072;-73
2024/01/18 23:08:11;;;;;;;35.72;24.45;;;;;;;20.74;50.79;98605.78;41446728;28;20172;-72
2024/01/18 23:28:11;;;;;;;30.35;22.27;;;;;;;20.66;50.87;98626.75;41403165;28;20050;-71
2024/01/18 23:48:11;;;;;;;27.50;20.27;;;;;;;20.64;51.15;98630.34;41360659;28;20043;-71
